createdAt,value
2023-01-28T00:01:33.253Z,11.13
2023-01-28T00:04:00.568Z,10.20
2023-01-28T00:06:27.817Z,8.20
2023-01-28T00:08:56.023Z,9.70
2023-01-28T00:11:23.367Z,8.60
2023-01-28T00:13:54.287Z,10.43
2023-01-28T00:16:22.862Z,9.07
2023-01-28T00:18:50.353Z,10.90
2023-01-28T00:21:17.452Z,9.30
2023-01-28T00:23:47.496Z,9.10
2023-01-28T00:26:15.496Z,10.88
2023-01-28T00:28:44.928Z,11.13
2023-01-28T00:31:17.600Z,9.20
2023-01-28T00:33:45.428Z,9.43
2023-01-28T00:36:15.733Z,9.03
2023-01-28T00:38:43.471Z,7.07
2023-01-28T00:41:12.454Z,7.87
2023-01-28T00:43:39.806Z,8.20
2023-01-28T00:46:13.844Z,16.20
2023-01-28T00:48:41.965Z,8.20
2023-01-28T00:51:09.292Z,11.50
2023-01-28T00:53:37.185Z,9.33
2023-01-28T00:56:08.214Z,9.40
2023-01-28T00:58:35.464Z,11.63
2023-01-28T01:01:22.469Z,9.47
2023-01-28T01:03:57.703Z,9.60
2023-01-28T01:06:25.318Z,11.73
2023-01-28T01:08:52.406Z,9.17
2023-01-28T01:11:19.524Z,10.40
2023-01-28T01:13:57.458Z,9.77
2023-01-28T01:16:29.840Z,12.33
2023-01-28T01:18:57.329Z,12.60
2023-01-28T01:21:26.258Z,11.03
2023-01-28T01:23:53.430Z,12.40
2023-01-28T01:26:22.186Z,11.47
2023-01-28T01:28:51.748Z,10.97
2023-01-28T01:31:20.421Z,11.87
2023-01-28T01:33:48.199Z,9.63
2023-01-28T01:36:16.959Z,11.70
2023-01-28T01:38:44.898Z,11.23
2023-01-28T01:41:29.188Z,10.37
2023-01-28T01:44:02.810Z,10.80
2023-01-28T01:46:48.437Z,10.77
2023-01-28T01:49:18.307Z,10.97
2023-01-28T01:51:46.009Z,12.90
2023-01-28T01:54:13.215Z,9.77
2023-01-28T01:56:41.930Z,7.97
2023-01-28T01:59:14.642Z,10.10
2023-01-28T02:01:42.507Z,10.27
2023-01-28T02:04:19.539Z,10.47
2023-01-28T02:06:46.788Z,14.07
2023-01-28T02:09:24.484Z,12.40
2023-01-28T02:11:55.743Z,11.13
2023-01-28T02:14:30.928Z,7.30
2023-01-28T02:17:00.165Z,10.03
2023-01-28T02:19:30.002Z,13.30
2023-01-28T02:22:13.003Z,11.40
2023-01-28T02:24:46.123Z,11.93
2023-01-28T02:27:51.375Z,11.33
2023-01-28T02:30:25.617Z,11.23
2023-01-28T02:33:25.667Z,7.07
2023-01-28T02:35:55.797Z,7.85
2023-01-28T02:38:29.514Z,7.73
2023-01-28T02:41:09.851Z,9.37
2023-01-28T02:43:38.828Z,10.80
2023-01-28T02:46:44.889Z,14.40
2023-01-28T02:49:27.912Z,12.83
2023-01-28T02:52:44.158Z,10.87
2023-01-28T02:55:42.778Z,5.77
2023-01-28T02:58:24.857Z,9.13
2023-01-28T03:01:11.356Z,9.13
2023-01-28T03:03:53.933Z,8.63
2023-01-28T03:06:23.025Z,7.43
2023-01-28T03:09:13.645Z,9.07
2023-01-28T03:12:02.854Z,6.97
2023-01-28T03:14:48.785Z,6.87
2023-01-28T03:18:02.362Z,7.03
2023-01-28T03:20:57.387Z,7.07
2023-01-28T03:23:48.580Z,9.10
2023-01-28T03:26:34.394Z,6.30
2023-01-28T03:29:25.914Z,9.23
2023-01-28T03:32:11.955Z,6.40
2023-01-28T03:34:57.619Z,9.37
2023-01-28T03:37:24.975Z,5.73
2023-01-28T03:40:19.204Z,5.37
2023-01-28T03:42:46.356Z,5.83
2023-01-28T03:45:29.778Z,5.67
2023-01-28T03:47:56.996Z,6.80
2023-01-28T03:50:24.350Z,3.63
2023-01-28T03:53:15.966Z,5.80
2023-01-28T03:55:49.073Z,7.10
2023-01-28T03:58:18.387Z,6.80
2023-01-28T04:00:46.221Z,4.45
2023-01-28T04:03:18.463Z,6.93
2023-01-28T04:06:04.062Z,4.00
2023-01-28T04:08:53.136Z,6.60
2023-01-28T04:11:43.529Z,6.03
2023-01-28T04:14:15.351Z,10.03
2023-01-28T04:16:47.826Z,5.93
2023-01-28T04:19:15.380Z,5.83
2023-01-28T04:21:43.731Z,5.30
2023-01-28T04:24:11.078Z,5.20
2023-01-28T04:26:39.490Z,7.23
2023-01-28T04:29:06.771Z,6.47
2023-01-28T04:31:36.305Z,5.43
2023-01-28T04:34:23.736Z,4.13
2023-01-28T04:36:56.709Z,5.30
2023-01-28T04:39:43.886Z,4.07
2023-01-28T04:42:33.838Z,4.70
2023-01-28T04:45:12.993Z,3.50
2023-01-28T04:48:06.982Z,3.97
2023-01-28T04:51:06.397Z,5.07
2023-01-28T04:53:44.781Z,5.27
2023-01-28T04:56:32.343Z,4.73
2023-01-28T04:59:00.379Z,4.53
2023-01-28T05:01:27.973Z,4.90
2023-01-28T05:03:55.997Z,5.40
2023-01-28T05:06:26.681Z,3.87
2023-01-28T05:08:56.465Z,3.97
2023-01-28T05:11:23.834Z,6.70
2023-01-28T05:13:55.476Z,4.53
2023-01-28T05:16:23.905Z,5.27
2023-01-28T05:18:51.587Z,4.73
2023-01-28T05:21:20.361Z,5.70
2023-01-28T05:23:53.500Z,4.07
2023-01-28T05:26:21.123Z,5.90
2023-01-28T05:28:49.822Z,6.27
2023-01-28T05:31:17.099Z,5.60
2023-01-28T05:33:44.544Z,9.00
2023-01-28T05:36:13.260Z,5.00
2023-01-28T05:38:45.111Z,7.33
2023-01-28T05:43:40.912Z,5.93
2023-01-28T05:46:19.261Z,5.10
2023-01-28T05:49:16.874Z,6.03
2023-01-28T05:52:02.973Z,4.43
2023-01-28T05:54:32.090Z,7.07
2023-01-28T05:56:59.213Z,7.07
2023-01-28T05:59:26.788Z,5.77
2023-01-28T06:01:55.993Z,4.97
2023-01-28T06:04:23.168Z,5.23
2023-01-28T06:06:50.439Z,4.93
2023-01-28T06:09:17.679Z,5.07
2023-01-28T06:11:45.745Z,7.93
2023-01-28T06:14:15.237Z,7.72
2023-01-28T06:16:52.445Z,4.93
2023-01-28T06:19:25.088Z,6.73
2023-01-28T06:21:52.235Z,4.50
2023-01-28T06:24:21.239Z,4.57
2023-01-28T06:26:48.418Z,7.20
2023-01-28T06:29:15.785Z,6.63
2023-01-28T06:31:43.243Z,7.97
2023-01-28T06:34:13.256Z,5.20
2023-01-28T06:36:40.894Z,4.88
2023-01-28T06:39:08.117Z,11.73
2023-01-28T06:41:35.483Z,5.77
2023-01-28T06:44:02.584Z,5.70
2023-01-28T06:46:29.904Z,6.47
2023-01-28T06:48:57.739Z,4.03
2023-01-28T06:51:24.847Z,7.87
2023-01-28T06:53:52.129Z,4.77
2023-01-28T06:56:19.331Z,4.20
2023-01-28T06:58:46.645Z,5.17
2023-01-28T07:01:14.034Z,5.90
2023-01-28T07:03:44.117Z,4.33
2023-01-28T07:06:11.687Z,7.45
2023-01-28T07:08:39.992Z,6.80
2023-01-28T07:11:08.091Z,8.40
2023-01-28T07:13:35.276Z,6.17
2023-01-28T07:16:02.470Z,7.50
2023-01-28T07:18:30.051Z,4.83
2023-01-28T07:20:57.228Z,5.23
2023-01-28T07:23:24.511Z,6.27
2023-01-28T07:25:51.688Z,6.37
2023-01-28T07:28:22.277Z,8.27
2023-01-28T07:30:53.302Z,6.83
2023-01-28T07:33:20.941Z,7.37
2023-01-28T07:35:48.214Z,5.70
2023-01-28T07:38:15.534Z,8.17
2023-01-28T07:40:42.843Z,7.10
2023-01-28T07:43:13.050Z,5.67
2023-01-28T07:48:10.802Z,4.47
2023-01-28T07:50:38.045Z,8.70
2023-01-28T07:53:06.580Z,6.50
2023-01-28T07:55:36.023Z,6.80
2023-01-28T07:58:03.897Z,7.87
2023-01-28T08:00:32.132Z,5.83
2023-01-28T08:03:12.868Z,5.13
2023-01-28T08:05:44.500Z,7.80
2023-01-28T08:08:14.572Z,4.50
2023-01-28T08:10:42.160Z,6.22
2023-01-28T08:13:11.388Z,7.20
2023-01-28T08:15:39.077Z,5.40
2023-01-28T08:18:07.064Z,7.43
2023-01-28T08:20:34.483Z,7.50
2023-01-28T08:23:09.286Z,8.63
2023-01-28T08:25:36.727Z,4.80
2023-01-28T08:28:04.761Z,6.83
2023-01-28T08:30:32.071Z,6.73
2023-01-28T08:32:59.828Z,5.23
2023-01-28T08:35:27.285Z,8.50
2023-01-28T08:37:54.643Z,8.13
2023-01-28T08:40:22.019Z,6.00
2023-01-28T08:42:52.998Z,6.10
2023-01-28T08:45:22.666Z,7.13
2023-01-28T08:47:54.452Z,10.23
2023-01-28T08:50:22.411Z,8.97
2023-01-28T08:52:54.086Z,6.70
2023-01-28T08:55:21.232Z,8.90
2023-01-28T08:57:48.470Z,6.50
2023-01-28T09:00:16.236Z,11.63
2023-01-28T09:02:43.597Z,6.73
2023-01-28T09:05:11.255Z,8.20
2023-01-28T09:07:38.753Z,10.60
2023-01-28T09:10:06.276Z,9.47
2023-01-28T09:12:33.574Z,7.80
2023-01-28T09:15:00.804Z,10.60
2023-01-28T09:17:27.905Z,7.27
2023-01-28T09:19:55.273Z,6.47
2023-01-28T09:22:22.442Z,10.13
2023-01-28T09:24:49.580Z,6.73
2023-01-28T09:27:16.851Z,11.50
2023-01-28T09:29:44.306Z,8.33
2023-01-28T09:32:14.666Z,15.70
2023-01-28T09:34:44.966Z,57.20
2023-01-28T09:37:12.886Z,13.15
2023-01-28T09:39:39.948Z,13.40
2023-01-28T09:42:15.586Z,12.60
2023-01-28T09:45:01.080Z,12.30
2023-01-28T09:47:57.225Z,12.73
2023-01-28T09:50:36.600Z,11.20
2023-01-28T09:53:08.366Z,10.70
2023-01-28T09:55:39.018Z,8.50
2023-01-28T09:58:10.954Z,10.80
2023-01-28T10:01:00.789Z,14.87
2023-01-28T10:03:54.788Z,8.40
2023-01-28T10:07:01.647Z,11.43
2023-01-28T10:09:48.145Z,16.80
2023-01-28T10:12:27.121Z,8.10
2023-01-28T10:15:06.662Z,10.23
2023-01-28T10:18:16.141Z,16.77
2023-01-28T10:23:33.159Z,12.20
2023-01-28T10:26:00.662Z,11.27
2023-01-28T10:28:28.919Z,12.40
2023-01-28T10:30:56.175Z,12.07
2023-01-28T10:33:31.363Z,24.40
2023-01-28T10:35:58.616Z,12.97
2023-01-28T10:38:26.382Z,8.67
2023-01-28T10:40:53.697Z,12.10
2023-01-28T10:43:23.988Z,13.20
2023-01-28T10:46:05.394Z,15.00
2023-01-28T10:48:38.786Z,7.20
2023-01-28T10:51:06.590Z,10.63
2023-01-28T10:53:40.969Z,15.40
2023-01-28T10:56:10.873Z,8.70
2023-01-28T10:58:48.381Z,8.85
2023-01-28T11:01:15.847Z,8.17
2023-01-28T11:03:55.962Z,9.97
2023-01-28T11:06:27.859Z,10.00
2023-01-28T11:08:55.169Z,13.07
2023-01-28T11:11:26.804Z,13.65
2023-01-28T11:13:58.967Z,10.40
2023-01-28T11:16:26.861Z,10.10
2023-01-28T11:18:54.704Z,8.90
2023-01-28T11:21:29.701Z,13.10
2023-01-28T11:24:01.784Z,13.20
2023-01-28T11:26:34.374Z,13.25
2023-01-28T11:29:01.976Z,13.07
2023-01-28T11:31:29.427Z,9.00
2023-01-28T11:34:02.971Z,13.60
2023-01-28T11:36:31.370Z,17.57
2023-01-28T11:39:00.427Z,11.20
2023-01-28T11:41:32.337Z,11.48
2023-01-28T11:44:05.925Z,12.98
2023-01-28T11:46:51.822Z,17.58
2023-01-28T11:49:34.140Z,18.80
2023-01-28T11:52:16.956Z,14.50
2023-01-28T11:55:03.104Z,11.50
2023-01-28T11:57:39.765Z,13.27
2023-01-28T12:00:31.644Z,20.10
2023-01-28T12:03:14.418Z,19.85
2023-01-28T12:05:52.789Z,37.72
2023-01-28T12:08:25.867Z,14.43
2023-01-28T12:11:45.266Z,16.20
2023-01-28T12:14:31.328Z,19.13
2023-01-28T12:17:13.572Z,16.35
2023-01-28T12:19:43.649Z,13.48
2023-01-28T12:22:52.551Z,12.50
2023-01-28T12:25:48.957Z,13.45
2023-01-28T12:28:22.210Z,14.48
2023-01-28T12:31:17.480Z,13.70
2023-01-28T12:33:49.223Z,16.00
2023-01-28T12:36:50.370Z,11.75
2023-01-28T12:39:23.300Z,15.23
2023-01-28T12:42:09.384Z,14.38
2023-01-28T12:44:46.176Z,13.90
2023-01-28T12:47:19.966Z,15.10
2023-01-28T12:49:58.595Z,13.80
2023-01-28T12:52:56.198Z,11.00
2023-01-28T12:55:33.595Z,15.40
2023-01-28T12:58:01.034Z,12.07
2023-01-28T13:00:38.993Z,12.48
2023-01-28T13:03:34.576Z,11.55
2023-01-28T13:06:12.910Z,9.70
2023-01-28T13:08:42.389Z,13.55
2023-01-28T13:11:15.683Z,15.63
2023-01-28T13:13:43.544Z,12.38
2023-01-28T13:16:11.742Z,15.15
2023-01-28T13:18:45.412Z,10.45
2023-01-28T13:21:22.212Z,12.25
2023-01-28T13:24:01.831Z,10.00
2023-01-28T13:26:45.147Z,9.85
2023-01-28T13:29:15.503Z,11.25
2023-01-28T13:31:47.156Z,10.45
2023-01-28T13:34:33.307Z,10.90
2023-01-28T13:37:06.198Z,14.02
2023-01-28T13:39:34.983Z,12.57
2023-01-28T13:42:29.864Z,11.48
2023-01-28T13:44:57.570Z,12.48
2023-01-28T13:47:31.329Z,14.90
2023-01-28T13:50:43.405Z,16.27
2023-01-28T13:53:35.666Z,12.38
2023-01-28T13:56:04.855Z,12.80
2023-01-28T13:58:43.907Z,14.57
2023-01-28T14:01:27.381Z,12.55
2023-01-28T14:03:57.837Z,13.20
2023-01-28T14:06:45.181Z,15.75
2023-01-28T14:09:29.829Z,13.23
2023-01-28T14:12:23.600Z,14.63
2023-01-28T14:15:25.607Z,17.67
2023-01-28T14:17:53.982Z,12.90
2023-01-28T14:20:29.264Z,13.25
2023-01-28T14:23:01.930Z,11.00
2023-01-28T14:25:53.497Z,15.90
2023-01-28T14:28:49.857Z,13.38
2023-01-28T14:31:37.230Z,13.35
2023-01-28T14:34:30.316Z,12.17
2023-01-28T14:37:05.462Z,15.13
2023-01-28T14:39:49.915Z,16.70
2023-01-28T14:42:28.441Z,17.38
2023-01-28T14:45:05.629Z,12.77
2023-01-28T14:47:36.456Z,14.97
2023-01-28T14:50:18.809Z,15.40
2023-01-28T14:53:16.930Z,15.80
2023-01-28T14:56:12.749Z,12.35
2023-01-28T14:58:42.877Z,17.25
2023-01-28T15:01:21.193Z,12.48
2023-01-28T15:03:48.704Z,16.25
2023-01-28T15:06:17.541Z,15.50
2023-01-28T15:08:44.680Z,13.27
2023-01-28T15:11:15.430Z,15.00
2023-01-28T15:13:45.330Z,13.57
2023-01-28T15:16:22.409Z,12.70
2023-01-28T15:18:51.061Z,12.07
2023-01-28T15:21:25.155Z,11.15
2023-01-28T15:23:54.047Z,11.13
2023-01-28T15:26:23.297Z,10.07
2023-01-28T15:28:51.163Z,12.20
2023-01-28T15:31:23.474Z,11.68
2023-01-28T15:33:58.329Z,14.50
2023-01-28T15:36:26.740Z,15.90
2023-01-28T15:38:54.820Z,13.90
2023-01-28T15:41:24.379Z,14.03
2023-01-28T15:43:52.081Z,14.77
2023-01-28T15:46:19.562Z,15.00
2023-01-28T15:49:05.742Z,14.33
2023-01-28T15:51:34.091Z,13.87
2023-01-28T15:54:09.467Z,13.23
2023-01-28T15:56:37.077Z,13.53
2023-01-28T15:59:43.388Z,16.33
2023-01-28T16:02:21.539Z,14.07
2023-01-28T16:05:08.415Z,15.80
2023-01-28T16:07:44.215Z,11.33
2023-01-28T16:10:21.425Z,12.33
2023-01-28T16:12:53.272Z,15.47
2023-01-28T16:15:21.079Z,13.83
2023-01-28T16:17:51.053Z,13.90
2023-01-28T16:20:26.125Z,12.65
2023-01-28T16:22:58.603Z,14.17
2023-01-28T16:25:33.851Z,11.60
2023-01-28T16:28:02.267Z,19.03
2023-01-28T16:30:29.531Z,12.93
2023-01-28T16:32:56.813Z,13.33
2023-01-28T16:35:28.490Z,16.90
2023-01-28T16:38:01.094Z,13.63
2023-01-28T16:40:28.819Z,13.23
2023-01-28T16:42:56.278Z,17.00
2023-01-28T16:45:24.716Z,14.63
2023-01-28T16:47:52.887Z,13.50
2023-01-28T16:50:22.186Z,12.57
2023-01-28T16:52:51.133Z,16.07
2023-01-28T16:55:20.285Z,14.50
2023-01-28T16:57:48.763Z,17.00
2023-01-28T17:00:23.540Z,12.07
2023-01-28T17:02:51.482Z,17.47
2023-01-28T17:05:19.912Z,14.07
2023-01-28T17:07:49.541Z,15.97
2023-01-28T17:10:17.625Z,14.85
2023-01-28T17:12:44.965Z,15.17
2023-01-28T17:15:13.041Z,13.83
2023-01-28T17:17:40.859Z,14.17
2023-01-28T17:20:08.842Z,15.00
2023-01-28T17:22:36.719Z,14.93
2023-01-28T17:25:03.865Z,15.30
2023-01-28T17:27:31.112Z,13.67
2023-01-28T17:29:58.687Z,16.27
2023-01-28T17:32:25.774Z,13.97
2023-01-28T17:34:52.822Z,13.57
2023-01-28T17:37:20.086Z,13.47
2023-01-28T17:39:47.310Z,14.17
2023-01-28T17:42:17.000Z,18.17
2023-01-28T17:44:44.260Z,13.65
2023-01-28T17:47:11.835Z,16.27
2023-01-28T17:49:39.110Z,14.77
2023-01-28T17:52:06.888Z,13.77
2023-01-28T17:54:35.404Z,17.60
2023-01-28T17:57:02.553Z,13.00
2023-01-28T17:59:29.945Z,13.03
2023-01-28T18:01:57.474Z,13.37
2023-01-28T18:04:25.443Z,13.17
2023-01-28T18:06:52.985Z,14.10
2023-01-28T18:09:20.206Z,14.27
2023-01-28T18:11:47.879Z,15.60
2023-01-28T18:14:15.491Z,13.23
2023-01-28T18:16:42.713Z,15.33
2023-01-28T18:19:12.793Z,15.83
2023-01-28T18:21:57.180Z,17.17
2023-01-28T18:24:25.984Z,13.80
2023-01-28T18:26:55.760Z,12.67
2023-01-28T18:29:24.343Z,15.20
2023-01-28T18:31:54.510Z,9.57
2023-01-28T18:34:23.131Z,12.68
2023-01-28T18:36:50.218Z,10.07
2023-01-28T18:39:20.616Z,11.07
2023-01-28T18:41:47.963Z,12.00
2023-01-28T18:44:15.473Z,9.87
2023-01-28T18:46:42.723Z,9.10
2023-01-28T18:49:10.484Z,11.57
2023-01-28T18:51:38.752Z,12.13
2023-01-28T18:54:08.026Z,11.70
2023-01-28T18:56:36.903Z,8.57
2023-01-28T18:59:05.400Z,9.63
2023-01-28T19:01:33.473Z,13.73
2023-01-28T19:04:00.960Z,12.80
2023-01-28T19:06:29.159Z,12.27
2023-01-28T19:09:00.603Z,15.23
2023-01-28T19:11:28.656Z,13.03
2023-01-28T19:13:55.794Z,13.27
2023-01-28T19:16:22.983Z,10.70
2023-01-28T19:18:58.412Z,12.40
2023-01-28T19:21:26.161Z,12.53
2023-01-28T19:24:01.684Z,11.60
2023-01-28T19:26:30.131Z,13.57
2023-01-28T19:28:57.589Z,13.40
2023-01-28T19:31:24.970Z,14.33
2023-01-28T19:33:58.257Z,13.13
2023-01-28T19:36:26.732Z,12.73
2023-01-28T19:39:00.956Z,16.00
2023-01-28T19:41:28.761Z,13.20
2023-01-28T19:43:56.417Z,12.30
2023-01-28T19:46:23.645Z,13.87
2023-01-28T19:48:51.057Z,13.07
2023-01-28T19:51:18.480Z,14.60
2023-01-28T19:53:45.885Z,15.27
2023-01-28T19:56:14.640Z,13.93
2023-01-28T19:58:43.324Z,12.87
2023-01-28T20:01:21.300Z,15.40
2023-01-28T20:03:53.015Z,15.47
2023-01-28T20:06:20.319Z,10.10
2023-01-28T20:08:51.739Z,12.00
2023-01-28T20:11:19.177Z,9.97
2023-01-28T20:13:46.905Z,8.50
2023-01-28T20:16:24.877Z,12.20
2023-01-28T20:18:54.089Z,10.37
2023-01-28T20:21:21.350Z,8.60
2023-01-28T20:23:49.459Z,10.23
2023-01-28T20:26:16.831Z,9.97
2023-01-28T20:28:44.234Z,11.47
2023-01-28T20:31:12.158Z,9.10
2023-01-28T20:33:39.869Z,9.80
2023-01-28T20:36:08.494Z,10.23
2023-01-28T20:38:36.735Z,9.73
2023-01-28T20:41:12.160Z,10.37
2023-01-28T20:43:40.708Z,9.73
2023-01-28T20:46:10.794Z,9.60
2023-01-28T20:48:37.903Z,10.77
2023-01-28T20:51:09.318Z,10.20
2023-01-28T20:53:36.777Z,12.40
2023-01-28T20:56:04.192Z,10.13
2023-01-28T20:58:31.709Z,9.90
2023-01-28T21:00:58.973Z,10.87
2023-01-28T21:03:26.512Z,10.70
2023-01-28T21:05:53.986Z,10.93
2023-01-28T21:08:21.224Z,13.17
2023-01-28T21:10:48.463Z,12.43
2023-01-28T21:13:16.064Z,10.13
2023-01-28T21:15:53.620Z,15.07
2023-01-28T21:18:20.802Z,9.50
2023-01-28T21:20:47.983Z,11.00
2023-01-28T21:23:15.929Z,8.57
2023-01-28T21:25:44.003Z,10.70
2023-01-28T21:28:11.787Z,9.47
2023-01-28T21:30:39.066Z,12.00
2023-01-28T21:33:06.572Z,13.23
2023-01-28T21:35:40.700Z,10.73
2023-01-28T21:38:07.989Z,8.73
2023-01-28T21:40:35.554Z,10.50
2023-01-28T21:43:02.606Z,9.07
2023-01-28T21:45:30.127Z,8.67
2023-01-28T21:47:57.702Z,10.40
2023-01-28T21:50:25.070Z,11.90
2023-01-28T21:52:52.373Z,9.13
2023-01-28T21:55:19.837Z,10.63
2023-01-28T21:57:46.935Z,9.77
2023-01-28T22:00:15.112Z,10.20
2023-01-28T22:02:42.554Z,9.87
2023-01-28T22:05:12.430Z,10.63
2023-01-28T22:07:39.951Z,10.88
2023-01-28T22:10:09.089Z,9.07
2023-01-28T22:12:36.384Z,11.10
2023-01-28T22:15:04.552Z,10.37
2023-01-28T22:17:31.820Z,10.07
2023-01-28T22:19:58.904Z,8.90
2023-01-28T22:22:26.334Z,10.07
2023-01-28T22:24:53.423Z,8.87
2023-01-28T22:27:20.914Z,10.37
2023-01-28T22:29:48.239Z,9.83
2023-01-28T22:32:15.319Z,9.60
2023-01-28T22:34:42.532Z,9.33
2023-01-28T22:37:11.169Z,11.23
2023-01-28T22:39:38.268Z,16.30
2023-01-28T22:42:06.838Z,12.40
2023-01-28T22:44:34.097Z,13.87
2023-01-28T22:47:01.411Z,16.53
2023-01-28T22:49:28.749Z,11.40
2023-01-28T22:51:59.330Z,13.27
2023-01-28T22:56:53.531Z,13.80
2023-01-28T22:59:20.776Z,12.33
2023-01-28T23:01:47.898Z,14.10
2023-01-28T23:04:18.142Z,16.93
2023-01-28T23:06:45.410Z,16.05
2023-01-28T23:09:13.067Z,15.23
2023-01-28T23:11:40.173Z,16.83
2023-01-28T23:14:26.792Z,15.83
2023-01-28T23:17:12.793Z,15.60
2023-01-28T23:19:59.072Z,16.97
2023-01-28T23:22:50.196Z,16.33
2023-01-28T23:25:18.019Z,16.27
2023-01-28T23:27:45.187Z,13.73
2023-01-28T23:30:13.254Z,14.77
2023-01-28T23:32:42.470Z,15.00
2023-01-28T23:35:09.988Z,15.90
2023-01-28T23:37:37.692Z,13.33
2023-01-28T23:40:06.007Z,15.47
2023-01-28T23:42:33.097Z,13.57
2023-01-28T23:45:00.165Z,16.77
2023-01-28T23:47:27.627Z,14.17
2023-01-28T23:49:54.785Z,15.83
2023-01-28T23:52:22.016Z,17.70
2023-01-28T23:54:49.259Z,19.20
2023-01-28T23:57:16.930Z,15.60
2023-01-28T23:59:44.074Z,16.97
